Bremerton National Airport
KPWT : rendu visible

Aérodrome :











RETROUVEZ-NOUS SUR...

 
LOGIN :

S'inscrire | Disclaimer

   EN    FR    IT 

 









Légende :    VFR   VFR Marginal   IFR   IFR Intensif   IFR Très Intensif
Visi : 
Plafond : 
>= 8 km
>= 3000ft
5 à 8 km
1000 à 3000 ft
1500m à 5 km
500 à 1000 ft
800 à 1500m
200 à 500 ft
< 800m
< 200 ft
Symboles :   Orages  Brouillard  Fortes neiges  Fortes précipitations  Vent > 20 kt






- Altitude de l'aérodrome : 444 ft
- Code IATA : PWT


KPWT - Bremerton National

DERNIER METAR :
  • 282256Z AUTO 05007KT 10SM BKN019 07/05 A3038 RMK AO2 SLP295 T00670050 $

METARs EXPIRÉS :
  • 282244Z AUTO 04006KT 10SM FEW007 BKN019 BKN047 07/05 A3038 RMK AO2 $
  • 282209Z AUTO 03007KT 10SM SCT009 SCT014 OVC047 07/06 A3038 RMK AO2 $
  • 282156Z AUTO 05008KT 10SM BKN009 OVC014 07/06 A3039 RMK AO2 CIG 006V011 SLP296 T00670056 $
  • 282147Z AUTO 03007KT 10SM BKN009 OVC014 07/06 A3039 RMK AO2 CIG 006V012 $
  • 282128Z AUTO 05007KT 10SM BKN014 OVC019 07/06 A3038 RMK AO2 $
  • 282110Z AUTO 05008KT 10SM FEW007 OVC016 07/06 A3038 RMK AO2 $
  • 282056Z AUTO 04007KT 10SM FEW007 OVC013 07/06 A3038 RMK AO2 SLP293 T00670056 53002 $
  • 282033Z AUTO 05009KT 10SM OVC011 07/06 A3037 RMK AO2 $
  • 282012Z AUTO 04007KT 10SM BKN009 OVC020 07/06 A3037 RMK AO2 $

TAF KPWT
Valide du 28 à 18h jusqu'au 29 à 18h UTC


281721Z 2818/2918 22004KT P6SM FEW003 OVC025
TEMPO 2818/2820 1SM BR BKN003 OVC025
FM290200 05003KT P6SM BKN250
FM291200 00000KT 4SM BR SCT003 BKN250
FM291400 00000KT 1/2SM FG VV003
FIR KZSE / Amérique du Nord



MET'MAP, la Météo Aéronautique d'un coup d'oeil ! - Copyright ORBIFLY Décembre 2007 - Disclaimer

ORBIFLY MET'MAP TEAM :

Programmation & Développement : Alexandra Zaïnal
Sur une idée originale de : Baudouin d'Aumeries
Assistance à la programmation : Marc-Olivier Méhu
Soutien technique & logistique : Manuel Goepfert

Contact : metmap@orbifly.com




SOURCES & CREDITS :

   NOAA       Earth
Advisory